createdAt,value
2022-09-06T00:01:40.325Z,96153.31
2022-09-06T00:04:26.353Z,96157.31
2022-09-06T00:07:12.652Z,96152.59
2022-09-06T00:09:58.709Z,96148.81
2022-09-06T00:12:44.736Z,96147.41
2022-09-06T00:15:31.004Z,96137.69
2022-09-06T00:18:17.181Z,96134.59
2022-09-06T00:21:04.511Z,96153.53
2022-09-06T00:23:50.970Z,96111.66
2022-09-06T00:26:36.840Z,96155.78
2022-09-06T00:29:22.846Z,96147.47
2022-09-06T00:32:09.152Z,96140.88
2022-09-06T00:34:55.400Z,96147.72
2022-09-06T00:37:41.321Z,96149.03
2022-09-06T00:40:29.546Z,96144.19
2022-09-06T00:43:15.718Z,96144.03
2022-09-06T00:46:02.610Z,96155.72
2022-09-06T00:48:50.595Z,96158.22
2022-09-06T00:51:37.195Z,96137.16
2022-09-06T00:54:23.605Z,96134.44
2022-09-06T00:57:10.434Z,96150.41
2022-09-06T00:59:56.778Z,96162.09
2022-09-06T01:02:43.550Z,96160.66
2022-09-06T01:05:39.441Z,96160.16
2022-09-06T01:08:51.373Z,96164.75
2022-09-06T01:11:55.952Z,96164.06
2022-09-06T01:15:09.761Z,96134.84
2022-09-06T01:18:01.937Z,96154.56
2022-09-06T01:21:06.272Z,96154.44
2022-09-06T01:23:59.471Z,96150.44
2022-09-06T01:27:03.899Z,96159.41
2022-09-06T01:30:02.310Z,96139.63
2022-09-06T01:33:07.281Z,96152.28
2022-09-06T01:36:01.195Z,96153.94
2022-09-06T01:38:47.096Z,96148.16
2022-09-06T01:41:33.194Z,96143.16
2022-09-06T01:44:20.206Z,96139.63
2022-09-06T01:47:31.015Z,96140.56
2022-09-06T01:50:35.528Z,96119.53
2022-09-06T01:53:46.696Z,96131.94
2022-09-06T01:57:07.974Z,96127.34
2022-09-06T01:59:53.932Z,96131.47
2022-09-06T02:03:10.808Z,96121.56
2022-09-06T02:06:15.312Z,96100.53
2022-09-06T02:09:06.856Z,96103.25
2022-09-06T02:12:01.113Z,96110.91
2022-09-06T02:14:54.660Z,96094.13
2022-09-06T02:17:45.607Z,96113.56
2022-09-06T02:20:34.220Z,96117.53
2022-09-06T02:23:24.552Z,96105.28
2022-09-06T02:26:20.900Z,96113.31
2022-09-06T02:29:07.066Z,96119.94
2022-09-06T02:31:59.689Z,96094.28
2022-09-06T02:34:46.325Z,96108.38
2022-09-06T02:37:32.791Z,96112.50
2022-09-06T02:40:18.917Z,96114.97
2022-09-06T02:43:04.956Z,96119.34
2022-09-06T02:45:50.989Z,96124.78
2022-09-06T02:48:37.352Z,96122.91
2022-09-06T02:51:23.757Z,96126.19
2022-09-06T02:54:09.857Z,96108.81
2022-09-06T02:56:55.862Z,96122.28
2022-09-06T02:59:41.967Z,96124.41
2022-09-06T03:02:27.836Z,96126.44
2022-09-06T03:05:13.710Z,96118.97
2022-09-06T03:07:59.836Z,96124.41
2022-09-06T03:10:52.960Z,96119.56
2022-09-06T03:13:39.087Z,96117.09
2022-09-06T03:16:25.126Z,96102.31
2022-09-06T03:19:11.472Z,96106.53
2022-09-06T03:21:57.487Z,96131.03
2022-09-06T03:24:43.889Z,96122.50
2022-09-06T03:27:29.820Z,96115.78
2022-09-06T03:30:16.073Z,96120.63
2022-09-06T03:33:03.058Z,96114.63
2022-09-06T03:35:53.875Z,96092.38
2022-09-06T03:38:40.191Z,96114.13
2022-09-06T03:41:26.316Z,96114.00
2022-09-06T03:44:12.392Z,96107.31
2022-09-06T03:46:58.805Z,96116.03
2022-09-06T03:49:45.408Z,96113.16
2022-09-06T03:52:31.723Z,96111.91
2022-09-06T03:55:17.915Z,96119.34
2022-09-06T03:58:04.221Z,96124.16
2022-09-06T04:00:54.198Z,96099.47
2022-09-06T04:03:40.352Z,96113.16
2022-09-06T04:06:26.472Z,96100.66
2022-09-06T04:09:12.451Z,96115.06
2022-09-06T04:11:58.597Z,96114.22
2022-09-06T04:14:44.622Z,96107.84
2022-09-06T04:17:30.521Z,96118.22
2022-09-06T04:20:17.462Z,96120.19
2022-09-06T04:23:04.119Z,96105.88
2022-09-06T04:25:52.463Z,96126.22
2022-09-06T04:28:38.523Z,96117.34
2022-09-06T04:31:24.617Z,96112.59
2022-09-06T04:34:10.509Z,96122.53
2022-09-06T04:36:56.647Z,96125.84
2022-09-06T04:39:43.008Z,96124.41
2022-09-06T04:42:29.312Z,96133.75
2022-09-06T04:45:15.460Z,96120.63
2022-09-06T04:48:02.105Z,96123.34
2022-09-06T04:50:48.303Z,96108.97
2022-09-06T04:53:34.215Z,96119.22
2022-09-06T04:56:22.449Z,96116.28
2022-09-06T04:59:08.564Z,96115.91
2022-09-06T05:01:55.287Z,96099.88
2022-09-06T05:04:41.180Z,96118.41
2022-09-06T05:07:27.033Z,96108.25
2022-09-06T05:10:12.917Z,96109.66
2022-09-06T05:12:58.677Z,96105.28
2022-09-06T05:15:44.835Z,96117.09
2022-09-06T05:18:31.334Z,96119.56
2022-09-06T05:21:17.359Z,96109.88
2022-09-06T05:24:03.541Z,96132.31
2022-09-06T05:26:49.534Z,96131.19
2022-09-06T05:29:35.338Z,96120.63
2022-09-06T05:32:21.157Z,96125.53
2022-09-06T05:35:07.357Z,96139.47
2022-09-06T05:37:53.403Z,96134.78
2022-09-06T05:40:39.430Z,96132.78
2022-09-06T05:43:25.277Z,96135.53
2022-09-06T05:46:11.664Z,96132.16
2022-09-06T05:49:04.819Z,96114.63
2022-09-06T05:51:52.213Z,96122.22
2022-09-06T05:54:38.773Z,96124.59
2022-09-06T06:07:35.726Z,96129.22
2022-09-06T06:10:21.981Z,96132.41
2022-09-06T06:13:07.949Z,96122.81
2022-09-06T06:15:53.868Z,96125.53
2022-09-06T06:18:40.041Z,96104.78
2022-09-06T06:21:28.839Z,96124.94
2022-09-06T06:24:14.875Z,96121.53
2022-09-06T06:27:00.803Z,96120.84
2022-09-06T06:29:46.752Z,96122.56
2022-09-06T06:32:32.594Z,96120.56
2022-09-06T06:35:18.402Z,96119.28
2022-09-06T06:38:04.325Z,96116.69
2022-09-06T06:40:50.127Z,96107.25
2022-09-06T06:43:37.774Z,96118.28
2022-09-06T06:46:26.588Z,96114.16
2022-09-06T06:49:12.581Z,96113.09
2022-09-06T06:51:58.326Z,96120.44
2022-09-06T06:54:44.315Z,96124.09
2022-09-06T06:57:30.152Z,96117.69
2022-09-06T07:00:16.307Z,96118.31
2022-09-06T07:03:02.509Z,96107.75
2022-09-06T07:08:57.082Z,96114.38
2022-09-06T07:11:43.417Z,96119.72
2022-09-06T07:14:29.641Z,96112.50
2022-09-06T07:17:15.469Z,96116.34
2022-09-06T07:20:17.136Z,96128.31
2022-09-06T07:26:16.288Z,96128.44
2022-09-06T07:29:04.531Z,96117.88
2022-09-06T07:34:57.277Z,96113.72
2022-09-06T07:37:43.495Z,96127.53
2022-09-06T07:40:30.848Z,96129.06
2022-09-06T07:43:16.986Z,96116.75
2022-09-06T07:46:06.131Z,96133.16
2022-09-06T07:48:52.473Z,96126.41
2022-09-06T07:51:38.619Z,96127.31
2022-09-06T07:54:31.866Z,96123.59
2022-09-06T07:57:18.109Z,96123.34
2022-09-06T08:00:05.149Z,96128.31
2022-09-06T08:02:57.723Z,96128.53
2022-09-06T08:08:58.195Z,96119.28
2022-09-06T08:11:44.589Z,96127.25
2022-09-06T08:14:30.510Z,96123.56
2022-09-06T08:17:16.589Z,96121.97
2022-09-06T08:20:04.109Z,96104.28
2022-09-06T08:22:50.412Z,96112.91
2022-09-06T08:25:36.380Z,96094.03
2022-09-06T08:28:25.605Z,96104.47
2022-09-06T08:31:16.066Z,96096.59
2022-09-06T08:34:03.872Z,96090.63
2022-09-06T08:36:49.857Z,96101.56
2022-09-06T08:39:35.746Z,96099.41
2022-09-06T08:42:21.622Z,96080.72
2022-09-06T08:45:16.724Z,96096.31
2022-09-06T08:48:03.321Z,96083.75
2022-09-06T08:50:59.910Z,96095.56
2022-09-06T08:53:52.990Z,96081.44
2022-09-06T08:57:11.269Z,96093.84
2022-09-06T09:00:01.489Z,96073.16
2022-09-06T09:02:51.819Z,96079.56
2022-09-06T09:05:40.061Z,96069.59
2022-09-06T09:08:29.324Z,96088.19
2022-09-06T09:11:18.758Z,96082.66
2022-09-06T09:14:19.222Z,96066.75
2022-09-06T09:17:15.734Z,96055.88
2022-09-06T09:20:02.216Z,96066.63
2022-09-06T09:22:48.938Z,96065.31
2022-09-06T09:25:36.378Z,96063.81
2022-09-06T09:28:25.943Z,96060.34
2022-09-06T09:31:14.362Z,96059.88
2022-09-06T09:34:04.721Z,96059.88
2022-09-06T09:40:57.135Z,96070.38
2022-09-06T09:43:57.768Z,96058.97
2022-09-06T09:46:45.769Z,96057.06
2022-09-06T09:49:32.616Z,96063.66
2022-09-06T09:52:27.646Z,96054.94
2022-09-06T09:55:13.637Z,96036.66
2022-09-06T09:57:59.593Z,96033.97
2022-09-06T10:00:45.597Z,96047.72
2022-09-06T10:03:31.393Z,96034.09
2022-09-06T10:09:35.978Z,96036.06
2022-09-06T10:12:34.286Z,96043.16
2022-09-06T10:15:53.718Z,96029.31
2022-09-06T10:18:44.009Z,96023.53
2022-09-06T10:21:30.285Z,96031.03
2022-09-06T10:24:31.987Z,96020.66
2022-09-06T10:27:26.267Z,96021.63
2022-09-06T10:30:14.555Z,96028.63
2022-09-06T10:33:23.792Z,96026.59
2022-09-06T10:36:10.126Z,96015.22
2022-09-06T10:39:04.257Z,96023.69
2022-09-06T10:41:50.358Z,96015.81
2022-09-06T10:44:45.727Z,96017.78
2022-09-06T10:47:38.058Z,96010.91
2022-09-06T10:50:54.747Z,96012.56
2022-09-06T10:53:54.898Z,96005.19
2022-09-06T10:57:09.336Z,96007.97
2022-09-06T11:00:15.603Z,95997.59
2022-09-06T11:06:13.907Z,96008.28
2022-09-06T11:09:12.037Z,96006.06
2022-09-06T11:12:09.668Z,95998.69
2022-09-06T11:14:55.837Z,95994.03
2022-09-06T11:18:06.609Z,95983.03
2022-09-06T11:21:25.377Z,95991.53
2022-09-06T11:24:16.026Z,95984.72
2022-09-06T11:27:06.553Z,95980.31
2022-09-06T11:29:56.605Z,95978.69
2022-09-06T11:32:48.593Z,95978.66
2022-09-06T11:35:35.054Z,95983.06
2022-09-06T11:38:25.155Z,95967.41
2022-09-06T11:41:16.265Z,95965.50
2022-09-06T11:44:03.006Z,95952.09
2022-09-06T11:46:49.120Z,95963.31
2022-09-06T11:49:37.349Z,95961.94
2022-09-06T11:52:49.254Z,95959.19
2022-09-06T11:55:45.668Z,95949.28
2022-09-06T11:58:51.019Z,95945.47
2022-09-06T12:01:37.891Z,95931.97
2022-09-06T12:04:23.881Z,95942.69
2022-09-06T12:07:11.996Z,95935.56
2022-09-06T12:10:01.733Z,95944.25
2022-09-06T12:12:52.617Z,95935.47
2022-09-06T12:15:46.405Z,95913.34
2022-09-06T12:18:47.896Z,95924.22
2022-09-06T12:21:38.274Z,95926.91
2022-09-06T12:24:36.542Z,95935.66
2022-09-06T12:27:24.063Z,95929.56
2022-09-06T12:30:12.476Z,95926.25
2022-09-06T12:32:58.756Z,95930.63
2022-09-06T12:38:39.645Z,95935.47
2022-09-06T12:41:28.553Z,95924.75
2022-09-06T12:44:15.788Z,95923.47
2022-09-06T12:47:10.878Z,95920.69
2022-09-06T12:50:21.336Z,95923.22
2022-09-06T12:53:24.642Z,95921.03
2022-09-06T12:56:14.369Z,95920.16
2022-09-06T12:59:17.730Z,95921.56
2022-09-06T13:02:08.944Z,95904.03
2022-09-06T13:05:06.856Z,95915.03
2022-09-06T13:07:59.597Z,95900.47
2022-09-06T13:10:47.542Z,95893.72
2022-09-06T13:13:33.773Z,95909.25
2022-09-06T13:16:21.171Z,95915.03
2022-09-06T13:19:15.772Z,95911.41
2022-09-06T13:22:03.998Z,95908.34
2022-09-06T13:24:56.105Z,95896.47
2022-09-06T13:27:46.165Z,95893.19
2022-09-06T13:30:49.041Z,95897.22
2022-09-06T13:33:37.710Z,95908.63
2022-09-06T13:36:33.921Z,95891.03
2022-09-06T13:39:49.271Z,95892.97
2022-09-06T13:42:36.731Z,95890.69
2022-09-06T13:45:29.943Z,95901.31
2022-09-06T13:48:28.685Z,95889.50
2022-09-06T13:51:15.555Z,95893.28
2022-09-06T13:54:08.792Z,95892.69
2022-09-06T13:56:55.457Z,95882.84
2022-09-06T13:59:42.842Z,95872.66
2022-09-06T14:02:29.046Z,95875.41
2022-09-06T14:05:14.992Z,95873.44
2022-09-06T14:08:01.231Z,95878.16
2022-09-06T14:10:48.350Z,95856.22
2022-09-06T14:13:34.404Z,95872.75
2022-09-06T14:16:20.772Z,95853.63
2022-09-06T14:19:06.884Z,95864.09
2022-09-06T14:21:52.938Z,95871.53
2022-09-06T14:24:39.342Z,95865.53
2022-09-06T14:27:25.417Z,95860.09
2022-09-06T14:30:11.990Z,95861.81
2022-09-06T14:32:58.009Z,95859.94
2022-09-06T14:35:43.818Z,95864.88
2022-09-06T14:38:29.820Z,95844.81
2022-09-06T14:41:17.759Z,95858.16
2022-09-06T14:44:04.242Z,95844.44
2022-09-06T14:46:53.463Z,95840.78
2022-09-06T14:49:39.657Z,95848.00
2022-09-06T14:52:25.570Z,95850.66
2022-09-06T14:55:12.540Z,95847.75
2022-09-06T14:57:59.413Z,95853.53
2022-09-06T15:00:46.709Z,95836.84
2022-09-06T15:03:34.597Z,95832.78
2022-09-06T15:06:22.150Z,95837.91
2022-09-06T15:09:08.248Z,95844.22
2022-09-06T15:11:54.641Z,95833.28
2022-09-06T15:14:41.296Z,95811.25
2022-09-06T15:17:27.232Z,95838.50
2022-09-06T15:20:13.305Z,95835.03
2022-09-06T15:23:15.135Z,95845.63
2022-09-06T15:26:08.316Z,95842.06
2022-09-06T15:28:54.606Z,95849.44
2022-09-06T15:31:41.961Z,95835.13
2022-09-06T15:34:28.142Z,95837.34
2022-09-06T15:37:13.959Z,95841.06
2022-09-06T15:40:00.128Z,95826.16
2022-09-06T15:42:46.428Z,95836.56
2022-09-06T15:45:46.819Z,95838.28
2022-09-06T15:48:43.594Z,95832.69
2022-09-06T15:51:29.588Z,95829.00
2022-09-06T15:54:18.173Z,95837.09
2022-09-06T15:57:05.133Z,95832.19
2022-09-06T15:59:51.150Z,95837.19
2022-09-06T16:02:37.237Z,95845.66
2022-09-06T16:08:29.770Z,95834.81
2022-09-06T16:11:17.029Z,95838.59
2022-09-06T16:14:05.400Z,95836.44
2022-09-06T16:16:54.530Z,95843.78
2022-09-06T16:19:40.862Z,95847.28
2022-09-06T16:22:26.752Z,95850.31
2022-09-06T16:25:12.662Z,95844.22
2022-09-06T16:27:58.724Z,95841.03
2022-09-06T16:30:45.034Z,95848.84
2022-09-06T16:33:32.529Z,95842.75
2022-09-06T16:36:19.304Z,95823.06
2022-09-06T16:39:06.231Z,95830.94
2022-09-06T16:41:52.607Z,95855.19
2022-09-06T16:44:38.760Z,95840.25
2022-09-06T16:47:25.227Z,95851.16
2022-09-06T16:50:11.761Z,95823.06
2022-09-06T16:52:58.453Z,95852.75
2022-09-06T16:55:44.623Z,95852.59
2022-09-06T16:58:31.297Z,95835.50
2022-09-06T17:01:17.982Z,95854.44
2022-09-06T17:04:05.839Z,95857.63
2022-09-06T17:06:51.888Z,95858.50
2022-09-06T17:09:37.977Z,95861.06
2022-09-06T17:12:24.420Z,95858.13
2022-09-06T17:15:10.896Z,95861.50
2022-09-06T17:17:57.070Z,95870.94
2022-09-06T17:20:54.837Z,95871.78
2022-09-06T17:23:41.044Z,95865.53
2022-09-06T17:26:27.370Z,95880.66
2022-09-06T17:29:13.399Z,95875.50
2022-09-06T17:32:00.383Z,95881.56
2022-09-06T17:34:46.641Z,95888.19
2022-09-06T17:37:33.563Z,95886.28
2022-09-06T17:40:20.182Z,95883.28
2022-09-06T17:43:06.917Z,95893.16
2022-09-06T17:45:53.038Z,95901.38
2022-09-06T17:48:39.375Z,95881.91
2022-09-06T17:51:26.191Z,95906.56
2022-09-06T17:54:13.317Z,95913.41
2022-09-06T17:56:59.236Z,95915.59
2022-09-06T17:59:45.493Z,95895.56
2022-09-06T18:02:31.416Z,95921.59
2022-09-06T18:05:18.110Z,95913.91
2022-09-06T18:08:04.122Z,95925.91
2022-09-06T18:10:50.610Z,95906.09
2022-09-06T18:13:36.817Z,95920.59
2022-09-06T18:16:23.089Z,95926.56
2022-09-06T18:19:09.353Z,95933.13
2022-09-06T18:21:57.322Z,95948.09
2022-09-06T18:24:44.159Z,95948.88
2022-09-06T18:27:30.190Z,95951.84
2022-09-06T18:30:16.411Z,95970.66
2022-09-06T18:33:02.741Z,95955.22
2022-09-06T18:35:50.515Z,95962.03
2022-09-06T18:38:38.620Z,95975.13
2022-09-06T18:41:42.982Z,95951.16
2022-09-06T18:44:33.134Z,95961.03
2022-09-06T18:47:19.623Z,95962.28
2022-09-06T18:50:08.258Z,95974.81
2022-09-06T18:52:55.291Z,95962.38
2022-09-06T18:55:43.309Z,95976.31
2022-09-06T18:58:29.527Z,95969.69
2022-09-06T19:01:17.996Z,95976.44
2022-09-06T19:04:05.657Z,95971.72
2022-09-06T19:06:52.230Z,95979.00
2022-09-06T19:09:38.724Z,95984.13
2022-09-06T19:12:25.067Z,95972.50
2022-09-06T19:15:13.835Z,95967.53
2022-09-06T19:18:00.411Z,95984.50
2022-09-06T19:20:57.232Z,95988.75
2022-09-06T19:23:45.362Z,95987.34
2022-09-06T19:26:34.419Z,95988.38
2022-09-06T19:29:21.018Z,95997.38
2022-09-06T19:32:07.635Z,95972.06
2022-09-06T19:34:53.923Z,95989.53
2022-09-06T19:37:40.247Z,95982.97
2022-09-06T19:40:26.357Z,95989.16
2022-09-06T19:43:12.460Z,95990.75
2022-09-06T19:46:05.649Z,95972.50
2022-09-06T19:48:52.600Z,95985.38
2022-09-06T19:51:39.665Z,95961.13
2022-09-06T19:54:25.761Z,95979.25
2022-09-06T19:57:12.057Z,95991.72
2022-09-06T19:59:57.972Z,95984.28
2022-09-06T20:02:44.208Z,95960.84
2022-09-06T20:05:29.998Z,95968.84
2022-09-06T20:08:16.062Z,95975.63
2022-09-06T20:11:03.403Z,95969.50
2022-09-06T20:13:49.523Z,95958.94
2022-09-06T20:16:40.681Z,95975.28
2022-09-06T20:19:27.765Z,95958.75
2022-09-06T20:22:13.832Z,95969.44
2022-09-06T20:24:59.855Z,95974.28
2022-09-06T20:27:46.143Z,95971.75
2022-09-06T20:30:32.076Z,95946.91
2022-09-06T20:33:18.323Z,95975.03
2022-09-06T20:36:06.249Z,95980.13
2022-09-06T20:38:52.341Z,95969.47
2022-09-06T20:41:38.602Z,95971.84
2022-09-06T20:44:24.535Z,95976.38
2022-09-06T20:47:10.375Z,95979.59
2022-09-06T20:49:56.150Z,95961.41
2022-09-06T20:52:42.305Z,95971.56
2022-09-06T20:55:28.419Z,95979.97
2022-09-06T20:58:14.323Z,95962.47
2022-09-06T21:01:00.346Z,95955.75
2022-09-06T21:03:46.498Z,95956.25
2022-09-06T21:06:36.659Z,95980.84
2022-09-06T21:09:22.937Z,95953.31
2022-09-06T21:12:08.912Z,95969.16
2022-09-06T21:14:55.159Z,95965.78
2022-09-06T21:17:41.130Z,95972.84
2022-09-06T21:20:26.874Z,95977.69
2022-09-06T21:23:12.810Z,95958.09
2022-09-06T21:26:10.270Z,95991.44
2022-09-06T21:28:56.238Z,95976.19
2022-09-06T21:31:42.507Z,95984.00
2022-09-06T21:34:28.874Z,95978.47
2022-09-06T21:37:14.871Z,95976.81
2022-09-06T21:40:00.733Z,95983.56
2022-09-06T21:42:47.237Z,95983.19
2022-09-06T21:45:38.180Z,95974.59
2022-09-06T21:48:24.534Z,95965.59
2022-09-06T21:51:15.606Z,95970.34
2022-09-06T21:54:05.096Z,95974.25
2022-09-06T21:56:51.344Z,95969.66
2022-09-06T21:59:37.315Z,95972.47
2022-09-06T22:02:23.668Z,95966.72
2022-09-06T22:05:10.042Z,95975.69
2022-09-06T22:07:56.094Z,95952.75
2022-09-06T22:10:42.164Z,95977.56
2022-09-06T22:13:28.315Z,95945.34
2022-09-06T22:16:15.732Z,95952.41
2022-09-06T22:19:02.197Z,95961.38
2022-09-06T22:21:48.591Z,95968.72
2022-09-06T22:24:34.883Z,95970.47
2022-09-06T22:27:20.823Z,95973.78
2022-09-06T22:30:07.254Z,95969.06
2022-09-06T22:32:53.777Z,95984.06
2022-09-06T22:35:40.149Z,95951.34
2022-09-06T22:38:27.345Z,95968.69
2022-09-06T22:41:13.521Z,95963.97
2022-09-06T22:44:03.736Z,95976.03
2022-09-06T22:46:50.012Z,95958.22
2022-09-06T22:49:36.122Z,95947.69
2022-09-06T22:52:21.960Z,95962.19
2022-09-06T22:55:08.341Z,95974.72
2022-09-06T22:57:54.498Z,95956.66
2022-09-06T23:00:40.473Z,95961.97
2022-09-06T23:03:26.356Z,95963.38
2022-09-06T23:06:12.676Z,95965.25
2022-09-06T23:08:58.805Z,95961.84
2022-09-06T23:11:45.377Z,95969.75
2022-09-06T23:14:31.428Z,95961.22
2022-09-06T23:17:17.451Z,95952.25
2022-09-06T23:20:04.027Z,95949.97
2022-09-06T23:22:50.119Z,95961.47
2022-09-06T23:25:39.370Z,95952.69
2022-09-06T23:28:25.463Z,95960.16
2022-09-06T23:31:14.681Z,95953.16
2022-09-06T23:34:01.568Z,95973.13
2022-09-06T23:36:48.106Z,95969.44
2022-09-06T23:39:34.210Z,95975.09
2022-09-06T23:42:21.115Z,95966.56
2022-09-06T23:45:07.362Z,95971.66
2022-09-06T23:47:53.306Z,95948.03
2022-09-06T23:50:39.449Z,95956.25
2022-09-06T23:53:25.841Z,95973.25
2022-09-06T23:56:12.352Z,95970.53
2022-09-06T23:58:58.498Z,95964.16
